sensor_id;sensor_type;location;lat;lon;timestamp;P1;durP1;ratioP1;P2;durP2;ratioP2
36391;SDS011;22639;42.690;23.356;2023-08-01T00:01:41;2.72;;;2.28;;
36391;SDS011;22639;42.690;23.356;2023-08-01T00:04:06;2.28;;;2.08;;
36391;SDS011;22639;42.690;23.356;2023-08-01T00:06:31;3.65;;;2.40;;
36391;SDS011;22639;42.690;23.356;2023-08-01T00:08:56;4.90;;;2.55;;
36391;SDS011;22639;42.690;23.356;2023-08-01T00:11:22;4.07;;;2.40;;
36391;SDS011;22639;42.690;23.356;2023-08-01T00:13:47;2.42;;;2.20;;
36391;SDS011;22639;42.690;23.356;2023-08-01T00:16:12;2.75;;;2.55;;
36391;SDS011;22639;42.690;23.356;2023-08-01T00:18:37;2.72;;;2.50;;
36391;SDS011;22639;42.690;23.356;2023-08-01T00:21:03;3.10;;;2.63;;
36391;SDS011;22639;42.690;23.356;2023-08-01T00:23:30;2.83;;;2.53;;
36391;SDS011;22639;42.690;23.356;2023-08-01T00:25:55;2.72;;;2.28;;
36391;SDS011;22639;42.690;23.356;2023-08-01T00:28:23;3.13;;;2.58;;
36391;SDS011;22639;42.690;23.356;2023-08-01T00:30:48;2.53;;;2.22;;
36391;SDS011;22639;42.690;23.356;2023-08-01T00:33:14;2.15;;;2.00;;
36391;SDS011;22639;42.690;23.356;2023-08-01T00:35:40;3.35;;;2.70;;
36391;SDS011;22639;42.690;23.356;2023-08-01T00:38:05;2.75;;;2.53;;
36391;SDS011;22639;42.690;23.356;2023-08-01T00:40:30;3.88;;;2.28;;
36391;SDS011;22639;42.690;23.356;2023-08-01T00:42:58;2.75;;;2.25;;
36391;SDS011;22639;42.690;23.356;2023-08-01T00:45:23;3.50;;;2.35;;
36391;SDS011;22639;42.690;23.356;2023-08-01T00:47:50;2.78;;;2.03;;
36391;SDS011;22639;42.690;23.356;2023-08-01T00:50:15;3.00;;;2.70;;
36391;SDS011;22639;42.690;23.356;2023-08-01T00:52:41;2.40;;;2.20;;
36391;SDS011;22639;42.690;23.356;2023-08-01T00:55:06;3.15;;;2.40;;
36391;SDS011;22639;42.690;23.356;2023-08-01T00:57:32;2.53;;;2.33;;
36391;SDS011;22639;42.690;23.356;2023-08-01T01:02:41;2.63;;;2.35;;
36391;SDS011;22639;42.690;23.356;2023-08-01T01:05:07;2.50;;;2.17;;
36391;SDS011;22639;42.690;23.356;2023-08-01T01:07:32;2.40;;;2.20;;
36391;SDS011;22639;42.690;23.356;2023-08-01T01:09:58;4.13;;;2.50;;
36391;SDS011;22639;42.690;23.356;2023-08-01T01:12:23;3.08;;;2.63;;
36391;SDS011;22639;42.690;23.356;2023-08-01T01:14:48;3.25;;;2.13;;
36391;SDS011;22639;42.690;23.356;2023-08-01T01:17:13;2.85;;;2.53;;
36391;SDS011;22639;42.690;23.356;2023-08-01T01:19:39;3.25;;;2.95;;
36391;SDS011;22639;42.690;23.356;2023-08-01T01:22:04;3.08;;;2.75;;
36391;SDS011;22639;42.690;23.356;2023-08-01T01:24:31;3.63;;;2.90;;
36391;SDS011;22639;42.690;23.356;2023-08-01T01:26:57;2.80;;;2.60;;
36391;SDS011;22639;42.690;23.356;2023-08-01T01:29:25;4.28;;;2.80;;
36391;SDS011;22639;42.690;23.356;2023-08-01T01:31:50;3.35;;;2.97;;
36391;SDS011;22639;42.690;23.356;2023-08-01T01:34:16;3.58;;;3.17;;
36391;SDS011;22639;42.690;23.356;2023-08-01T01:36:41;3.70;;;2.88;;
36391;SDS011;22639;42.690;23.356;2023-08-01T01:39:06;3.97;;;2.60;;
36391;SDS011;22639;42.690;23.356;2023-08-01T01:41:31;3.03;;;2.72;;
36391;SDS011;22639;42.690;23.356;2023-08-01T01:43:57;3.00;;;2.80;;
36391;SDS011;22639;42.690;23.356;2023-08-01T01:46:22;4.35;;;3.05;;
36391;SDS011;22639;42.690;23.356;2023-08-01T01:48:47;3.08;;;2.88;;
36391;SDS011;22639;42.690;23.356;2023-08-01T01:51:13;3.55;;;3.25;;
36391;SDS011;22639;42.690;23.356;2023-08-01T01:53:38;5.20;;;4.68;;
36391;SDS011;22639;42.690;23.356;2023-08-01T01:56:03;5.35;;;4.85;;
36391;SDS011;22639;42.690;23.356;2023-08-01T01:58:29;4.97;;;4.57;;
36391;SDS011;22639;42.690;23.356;2023-08-01T02:00:54;4.80;;;4.30;;
36391;SDS011;22639;42.690;23.356;2023-08-01T02:03:19;6.35;;;4.90;;
36391;SDS011;22639;42.690;23.356;2023-08-01T02:05:44;5.10;;;4.60;;
36391;SDS011;22639;42.690;23.356;2023-08-01T02:08:10;5.20;;;4.70;;
36391;SDS011;22639;42.690;23.356;2023-08-01T02:10:35;6.07;;;5.00;;
36391;SDS011;22639;42.690;23.356;2023-08-01T02:13:00;7.22;;;5.22;;
36391;SDS011;22639;42.690;23.356;2023-08-01T02:15:25;5.88;;;5.38;;
36391;SDS011;22639;42.690;23.356;2023-08-01T02:17:50;6.22;;;4.60;;
36391;SDS011;22639;42.690;23.356;2023-08-01T02:20:16;6.38;;;5.78;;
36391;SDS011;22639;42.690;23.356;2023-08-01T02:22:41;7.53;;;5.20;;
36391;SDS011;22639;42.690;23.356;2023-08-01T02:25:07;5.68;;;4.68;;
36391;SDS011;22639;42.690;23.356;2023-08-01T02:27:32;8.38;;;4.90;;
36391;SDS011;22639;42.690;23.356;2023-08-01T02:29:57;6.75;;;4.82;;
36391;SDS011;22639;42.690;23.356;2023-08-01T02:32:22;4.65;;;4.22;;
36391;SDS011;22639;42.690;23.356;2023-08-01T02:34:48;4.50;;;4.10;;
36391;SDS011;22639;42.690;23.356;2023-08-01T02:37:13;4.93;;;4.35;;
36391;SDS011;22639;42.690;23.356;2023-08-01T02:39:38;6.43;;;4.53;;
36391;SDS011;22639;42.690;23.356;2023-08-01T02:42:04;5.78;;;4.55;;
36391;SDS011;22639;42.690;23.356;2023-08-01T02:44:29;4.53;;;4.13;;
36391;SDS011;22639;42.690;23.356;2023-08-01T02:46:54;5.45;;;4.55;;
36391;SDS011;22639;42.690;23.356;2023-08-01T02:49:20;4.53;;;4.13;;
36391;SDS011;22639;42.690;23.356;2023-08-01T02:51:45;5.72;;;4.15;;
36391;SDS011;22639;42.690;23.356;2023-08-01T02:54:10;4.95;;;4.47;;
36391;SDS011;22639;42.690;23.356;2023-08-01T02:56:36;4.35;;;3.95;;
36391;SDS011;22639;42.690;23.356;2023-08-01T02:59:06;5.13;;;4.30;;
36391;SDS011;22639;42.690;23.356;2023-08-01T03:01:31;4.80;;;4.40;;
36391;SDS011;22639;42.690;23.356;2023-08-01T03:03:56;6.35;;;5.70;;
36391;SDS011;22639;42.690;23.356;2023-08-01T03:06:21;7.07;;;5.90;;
36391;SDS011;22639;42.690;23.356;2023-08-01T03:08:47;8.75;;;7.85;;
36391;SDS011;22639;42.690;23.356;2023-08-01T03:11:12;12.43;;;7.38;;
36391;SDS011;22639;42.690;23.356;2023-08-01T03:13:37;11.13;;;7.00;;
36391;SDS011;22639;42.690;23.356;2023-08-01T03:16:03;8.77;;;6.50;;
36391;SDS011;22639;42.690;23.356;2023-08-01T03:18:29;6.95;;;5.88;;
36391;SDS011;22639;42.690;23.356;2023-08-01T03:20:54;7.05;;;6.35;;
36391;SDS011;22639;42.690;23.356;2023-08-01T03:23:19;7.28;;;6.45;;
36391;SDS011;22639;42.690;23.356;2023-08-01T03:25:45;8.45;;;6.10;;
36391;SDS011;22639;42.690;23.356;2023-08-01T03:28:10;5.68;;;5.18;;
36391;SDS011;22639;42.690;23.356;2023-08-01T03:30:35;7.03;;;4.88;;
36391;SDS011;22639;42.690;23.356;2023-08-01T03:33:01;5.95;;;5.38;;
36391;SDS011;22639;42.690;23.356;2023-08-01T03:35:27;6.90;;;4.90;;
36391;SDS011;22639;42.690;23.356;2023-08-01T03:37:53;7.15;;;5.78;;
36391;SDS011;22639;42.690;23.356;2023-08-01T03:40:18;7.25;;;6.28;;
36391;SDS011;22639;42.690;23.356;2023-08-01T03:42:44;6.55;;;5.68;;
36391;SDS011;22639;42.690;23.356;2023-08-01T03:45:10;6.72;;;6.13;;
36391;SDS011;22639;42.690;23.356;2023-08-01T03:47:35;6.25;;;5.68;;
36391;SDS011;22639;42.690;23.356;2023-08-01T03:50:00;8.00;;;5.85;;
36391;SDS011;22639;42.690;23.356;2023-08-01T03:52:26;6.75;;;6.13;;
36391;SDS011;22639;42.690;23.356;2023-08-01T03:54:53;6.25;;;5.70;;
36391;SDS011;22639;42.690;23.356;2023-08-01T03:57:19;8.18;;;5.90;;
36391;SDS011;22639;42.690;23.356;2023-08-01T03:59:44;9.25;;;6.32;;
36391;SDS011;22639;42.690;23.356;2023-08-01T04:02:10;5.88;;;4.88;;
36391;SDS011;22639;42.690;23.356;2023-08-01T04:04:36;6.53;;;4.72;;
36391;SDS011;22639;42.690;23.356;2023-08-01T04:07:01;6.10;;;5.50;;
36391;SDS011;22639;42.690;23.356;2023-08-01T04:09:26;6.15;;;5.10;;
36391;SDS011;22639;42.690;23.356;2023-08-01T04:11:51;5.85;;;5.25;;
36391;SDS011;22639;42.690;23.356;2023-08-01T04:14:17;5.18;;;4.65;;
36391;SDS011;22639;42.690;23.356;2023-08-01T04:16:42;5.05;;;4.32;;
36391;SDS011;22639;42.690;23.356;2023-08-01T04:19:07;5.18;;;4.50;;
36391;SDS011;22639;42.690;23.356;2023-08-01T04:21:32;4.35;;;3.95;;
36391;SDS011;22639;42.690;23.356;2023-08-01T04:23:58;5.05;;;4.65;;
36391;SDS011;22639;42.690;23.356;2023-08-01T04:26:23;5.35;;;4.25;;
36391;SDS011;22639;42.690;23.356;2023-08-01T04:28:48;4.68;;;4.28;;
36391;SDS011;22639;42.690;23.356;2023-08-01T04:31:14;6.45;;;5.20;;
36391;SDS011;22639;42.690;23.356;2023-08-01T04:33:39;4.85;;;4.35;;
36391;SDS011;22639;42.690;23.356;2023-08-01T04:36:04;4.88;;;4.47;;
36391;SDS011;22639;42.690;23.356;2023-08-01T04:38:30;6.40;;;4.20;;
36391;SDS011;22639;42.690;23.356;2023-08-01T04:40:55;4.43;;;4.03;;
36391;SDS011;22639;42.690;23.356;2023-08-01T04:43:20;5.45;;;4.15;;
36391;SDS011;22639;42.690;23.356;2023-08-01T04:45:45;5.25;;;4.75;;
36391;SDS011;22639;42.690;23.356;2023-08-01T04:48:11;4.38;;;4.00;;
36391;SDS011;22639;42.690;23.356;2023-08-01T04:50:36;4.88;;;4.47;;
36391;SDS011;22639;42.690;23.356;2023-08-01T04:53:01;4.90;;;4.40;;
36391;SDS011;22639;42.690;23.356;2023-08-01T04:55:27;4.60;;;4.20;;
36391;SDS011;22639;42.690;23.356;2023-08-01T04:57:52;4.40;;;4.10;;
36391;SDS011;22639;42.690;23.356;2023-08-01T05:00:17;5.13;;;4.50;;
36391;SDS011;22639;42.690;23.356;2023-08-01T05:02:42;4.78;;;4.35;;
36391;SDS011;22639;42.690;23.356;2023-08-01T05:05:08;3.90;;;3.50;;
36391;SDS011;22639;42.690;23.356;2023-08-01T05:07:33;5.13;;;4.72;;
36391;SDS011;22639;42.690;23.356;2023-08-01T05:09:58;7.53;;;4.90;;
36391;SDS011;22639;42.690;23.356;2023-08-01T05:12:25;5.72;;;4.32;;
36391;SDS011;22639;42.690;23.356;2023-08-01T05:14:50;4.70;;;4.30;;
36391;SDS011;22639;42.690;23.356;2023-08-01T05:17:15;3.97;;;3.60;;
36391;SDS011;22639;42.690;23.356;2023-08-01T05:19:40;3.88;;;3.53;;
36391;SDS011;22639;42.690;23.356;2023-08-01T05:22:06;4.60;;;3.70;;
36391;SDS011;22639;42.690;23.356;2023-08-01T05:24:31;3.92;;;3.63;;
36391;SDS011;22639;42.690;23.356;2023-08-01T05:26:57;4.03;;;3.72;;
36391;SDS011;22639;42.690;23.356;2023-08-01T05:29:22;4.40;;;4.10;;
36391;SDS011;22639;42.690;23.356;2023-08-01T05:31:47;5.30;;;3.60;;
36391;SDS011;22639;42.690;23.356;2023-08-01T05:34:12;4.50;;;3.80;;
36391;SDS011;22639;42.690;23.356;2023-08-01T05:36:39;4.57;;;4.20;;
36391;SDS011;22639;42.690;23.356;2023-08-01T05:39:04;4.13;;;3.70;;
36391;SDS011;22639;42.690;23.356;2023-08-01T05:41:29;4.15;;;3.75;;
36391;SDS011;22639;42.690;23.356;2023-08-01T05:43:55;6.05;;;3.90;;
36391;SDS011;22639;42.690;23.356;2023-08-01T05:46:20;4.50;;;4.10;;
36391;SDS011;22639;42.690;23.356;2023-08-01T05:48:45;4.45;;;4.00;;
36391;SDS011;22639;42.690;23.356;2023-08-01T05:51:11;4.53;;;3.80;;
36391;SDS011;22639;42.690;23.356;2023-08-01T05:53:36;4.90;;;3.88;;
36391;SDS011;22639;42.690;23.356;2023-08-01T05:56:01;5.18;;;4.03;;
36391;SDS011;22639;42.690;23.356;2023-08-01T05:58:27;5.18;;;4.68;;
36391;SDS011;22639;42.690;23.356;2023-08-01T06:00:52;4.47;;;4.07;;
36391;SDS011;22639;42.690;23.356;2023-08-01T06:03:17;4.57;;;4.07;;
36391;SDS011;22639;42.690;23.356;2023-08-01T06:05:43;4.47;;;4.07;;
36391;SDS011;22639;42.690;23.356;2023-08-01T06:08:08;5.18;;;4.25;;
36391;SDS011;22639;42.690;23.356;2023-08-01T06:10:34;3.85;;;3.55;;
36391;SDS011;22639;42.690;23.356;2023-08-01T06:12:59;3.97;;;3.67;;
36391;SDS011;22639;42.690;23.356;2023-08-01T06:15:26;4.30;;;3.90;;
36391;SDS011;22639;42.690;23.356;2023-08-01T06:17:51;4.70;;;4.28;;
36391;SDS011;22639;42.690;23.356;2023-08-01T06:20:16;4.50;;;4.10;;
36391;SDS011;22639;42.690;23.356;2023-08-01T06:22:42;5.55;;;5.05;;
36391;SDS011;22639;42.690;23.356;2023-08-01T06:25:07;5.93;;;4.07;;
36391;SDS011;22639;42.690;23.356;2023-08-01T06:27:33;4.75;;;3.90;;
36391;SDS011;22639;42.690;23.356;2023-08-01T06:29:58;4.20;;;3.78;;
36391;SDS011;22639;42.690;23.356;2023-08-01T06:32:26;4.57;;;4.18;;
36391;SDS011;22639;42.690;23.356;2023-08-01T06:34:51;4.60;;;3.60;;
36391;SDS011;22639;42.690;23.356;2023-08-01T06:37:16;3.47;;;3.17;;
36391;SDS011;22639;42.690;23.356;2023-08-01T06:39:42;4.72;;;3.80;;
36391;SDS011;22639;42.690;23.356;2023-08-01T06:42:07;4.07;;;3.65;;
36391;SDS011;22639;42.690;23.356;2023-08-01T06:44:32;4.47;;;3.90;;
36391;SDS011;22639;42.690;23.356;2023-08-01T06:46:57;5.03;;;3.13;;
36391;SDS011;22639;42.690;23.356;2023-08-01T06:49:23;4.55;;;2.92;;
36391;SDS011;22639;42.690;23.356;2023-08-01T06:51:48;13.60;;;4.18;;
36391;SDS011;22639;42.690;23.356;2023-08-01T06:54:13;4.28;;;3.90;;
36391;SDS011;22639;42.690;23.356;2023-08-01T06:56:38;3.65;;;3.35;;
36391;SDS011;22639;42.690;23.356;2023-08-01T06:59:04;3.30;;;3.03;;
36391;SDS011;22639;42.690;23.356;2023-08-01T07:01:29;8.05;;;3.50;;
36391;SDS011;22639;42.690;23.356;2023-08-01T07:03:55;3.83;;;3.45;;
36391;SDS011;22639;42.690;23.356;2023-08-01T07:06:21;3.45;;;3.15;;
36391;SDS011;22639;42.690;23.356;2023-08-01T07:08:46;3.70;;;3.33;;
36391;SDS011;22639;42.690;23.356;2023-08-01T07:11:11;5.55;;;4.63;;
36391;SDS011;22639;42.690;23.356;2023-08-01T07:13:38;3.43;;;3.13;;
36391;SDS011;22639;42.690;23.356;2023-08-01T07:16:03;6.20;;;3.55;;
36391;SDS011;22639;42.690;23.356;2023-08-01T07:18:29;4.18;;;3.28;;
36391;SDS011;22639;42.690;23.356;2023-08-01T07:21:00;4.83;;;3.63;;
36391;SDS011;22639;42.690;23.356;2023-08-01T07:23:27;3.22;;;2.97;;
36391;SDS011;22639;42.690;23.356;2023-08-01T07:25:53;3.33;;;2.92;;
36391;SDS011;22639;42.690;23.356;2023-08-01T07:28:18;5.70;;;3.30;;
36391;SDS011;22639;42.690;23.356;2023-08-01T07:30:43;13.10;;;3.70;;
36391;SDS011;22639;42.690;23.356;2023-08-01T07:33:09;3.67;;;3.22;;
36391;SDS011;22639;42.690;23.356;2023-08-01T07:35:35;3.10;;;2.90;;
36391;SDS011;22639;42.690;23.356;2023-08-01T07:38:00;4.80;;;3.63;;
36391;SDS011;22639;42.690;23.356;2023-08-01T07:40:25;3.80;;;3.40;;
36391;SDS011;22639;42.690;23.356;2023-08-01T07:42:50;4.43;;;2.93;;
36391;SDS011;22639;42.690;23.356;2023-08-01T07:45:17;8.43;;;3.30;;
36391;SDS011;22639;42.690;23.356;2023-08-01T07:47:42;3.45;;;2.83;;
36391;SDS011;22639;42.690;23.356;2023-08-01T07:50:08;3.30;;;3.00;;
36391;SDS011;22639;42.690;23.356;2023-08-01T07:52:33;4.80;;;3.30;;
36391;SDS011;22639;42.690;23.356;2023-08-01T07:54:58;3.50;;;3.20;;
36391;SDS011;22639;42.690;23.356;2023-08-01T07:57:23;4.10;;;3.20;;
36391;SDS011;22639;42.690;23.356;2023-08-01T07:59:49;4.55;;;2.97;;
36391;SDS011;22639;42.690;23.356;2023-08-01T08:02:14;5.35;;;3.47;;
36391;SDS011;22639;42.690;23.356;2023-08-01T08:04:39;5.07;;;3.45;;
36391;SDS011;22639;42.690;23.356;2023-08-01T08:07:04;3.67;;;3.37;;
36391;SDS011;22639;42.690;23.356;2023-08-01T08:09:30;4.47;;;3.22;;
36391;SDS011;22639;42.690;23.356;2023-08-01T08:11:55;4.10;;;3.60;;
36391;SDS011;22639;42.690;23.356;2023-08-01T08:14:22;3.70;;;3.10;;
36391;SDS011;22639;42.690;23.356;2023-08-01T08:16:48;3.60;;;3.15;;
36391;SDS011;22639;42.690;23.356;2023-08-01T08:19:13;5.18;;;2.75;;
36391;SDS011;22639;42.690;23.356;2023-08-01T08:21:38;3.33;;;3.03;;
36391;SDS011;22639;42.690;23.356;2023-08-01T08:24:03;4.00;;;3.60;;
36391;SDS011;22639;42.690;23.356;2023-08-01T08:26:29;3.47;;;3.17;;
36391;SDS011;22639;42.690;23.356;2023-08-01T08:28:54;4.18;;;3.17;;
36391;SDS011;22639;42.690;23.356;2023-08-01T08:31:19;4.70;;;3.28;;
36391;SDS011;22639;42.690;23.356;2023-08-01T08:33:44;5.50;;;3.63;;
36391;SDS011;22639;42.690;23.356;2023-08-01T08:36:10;3.03;;;2.83;;
36391;SDS011;22639;42.690;23.356;2023-08-01T08:38:35;2.80;;;2.60;;
36391;SDS011;22639;42.690;23.356;2023-08-01T08:41:10;3.13;;;2.92;;
36391;SDS011;22639;42.690;23.356;2023-08-01T08:43:35;5.72;;;3.95;;
36391;SDS011;22639;42.690;23.356;2023-08-01T08:46:02;2.90;;;2.70;;
36391;SDS011;22639;42.690;23.356;2023-08-01T08:48:28;4.63;;;3.58;;
36391;SDS011;22639;42.690;23.356;2023-08-01T08:50:53;2.95;;;2.75;;
36391;SDS011;22639;42.690;23.356;2023-08-01T08:53:19;3.38;;;3.00;;
36391;SDS011;22639;42.690;23.356;2023-08-01T08:55:45;3.28;;;2.97;;
36391;SDS011;22639;42.690;23.356;2023-08-01T08:58:10;3.85;;;2.50;;
36391;SDS011;22639;42.690;23.356;2023-08-01T09:00:36;5.93;;;2.80;;
36391;SDS011;22639;42.690;23.356;2023-08-01T09:03:02;4.40;;;2.88;;
36391;SDS011;22639;42.690;23.356;2023-08-01T09:05:27;3.05;;;2.83;;
36391;SDS011;22639;42.690;23.356;2023-08-01T09:07:55;4.20;;;3.03;;
36391;SDS011;22639;42.690;23.356;2023-08-01T09:10:21;4.20;;;3.03;;
36391;SDS011;22639;42.690;23.356;2023-08-01T09:12:46;3.55;;;2.90;;
36391;SDS011;22639;42.690;23.356;2023-08-01T09:15:12;5.70;;;4.30;;
36391;SDS011;22639;42.690;23.356;2023-08-01T09:17:46;3.25;;;2.85;;
36391;SDS011;22639;42.690;23.356;2023-08-01T09:20:12;3.67;;;3.30;;
36391;SDS011;22639;42.690;23.356;2023-08-01T09:22:44;3.53;;;2.97;;
36391;SDS011;22639;42.690;23.356;2023-08-01T09:25:10;5.55;;;3.63;;
36391;SDS011;22639;42.690;23.356;2023-08-01T09:27:35;6.85;;;5.32;;
36391;SDS011;22639;42.690;23.356;2023-08-01T09:30:07;5.00;;;4.47;;
36391;SDS011;22639;42.690;23.356;2023-08-01T09:32:33;8.63;;;4.15;;
36391;SDS011;22639;42.690;23.356;2023-08-01T09:34:59;4.07;;;3.50;;
36391;SDS011;22639;42.690;23.356;2023-08-01T09:37:25;3.30;;;3.10;;
36391;SDS011;22639;42.690;23.356;2023-08-01T09:39:54;3.42;;;3.13;;
36391;SDS011;22639;42.690;23.356;2023-08-01T09:42:20;4.55;;;3.42;;
36391;SDS011;22639;42.690;23.356;2023-08-01T09:44:45;6.32;;;4.95;;
36391;SDS011;22639;42.690;23.356;2023-08-01T09:47:11;5.82;;;4.38;;
36391;SDS011;22639;42.690;23.356;2023-08-01T09:49:47;8.98;;;7.60;;
36391;SDS011;22639;42.690;23.356;2023-08-01T09:52:12;6.82;;;4.65;;
36391;SDS011;22639;42.690;23.356;2023-08-01T09:54:37;4.50;;;4.00;;
36391;SDS011;22639;42.690;23.356;2023-08-01T09:57:03;4.70;;;3.55;;
36391;SDS011;22639;42.690;23.356;2023-08-01T09:59:29;4.22;;;3.28;;
36391;SDS011;22639;42.690;23.356;2023-08-01T10:01:55;4.90;;;3.45;;
36391;SDS011;22639;42.690;23.356;2023-08-01T10:04:29;3.40;;;3.20;;
36391;SDS011;22639;42.690;23.356;2023-08-01T10:06:57;4.07;;;3.53;;
36391;SDS011;22639;42.690;23.356;2023-08-01T10:09:23;5.03;;;3.10;;
36391;SDS011;22639;42.690;23.356;2023-08-01T10:11:49;4.00;;;3.60;;
36391;SDS011;22639;42.690;23.356;2023-08-01T10:14:16;3.42;;;3.13;;
36391;SDS011;22639;42.690;23.356;2023-08-01T10:16:42;3.83;;;3.50;;
36391;SDS011;22639;42.690;23.356;2023-08-01T10:19:08;3.78;;;3.35;;
36391;SDS011;22639;42.690;23.356;2023-08-01T10:21:34;4.97;;;3.50;;
36391;SDS011;22639;42.690;23.356;2023-08-01T10:23:59;4.38;;;3.50;;
36391;SDS011;22639;42.690;23.356;2023-08-01T10:26:25;4.18;;;3.85;;
36391;SDS011;22639;42.690;23.356;2023-08-01T10:28:51;3.58;;;3.15;;
36391;SDS011;22639;42.690;23.356;2023-08-01T10:31:17;4.03;;;3.40;;
36391;SDS011;22639;42.690;23.356;2023-08-01T10:33:51;3.70;;;3.40;;
36391;SDS011;22639;42.690;23.356;2023-08-01T10:36:18;4.55;;;3.47;;
36391;SDS011;22639;42.690;23.356;2023-08-01T10:38:47;4.38;;;3.45;;
36391;SDS011;22639;42.690;23.356;2023-08-01T10:41:19;4.18;;;3.78;;
36391;SDS011;22639;42.690;23.356;2023-08-01T10:43:45;3.75;;;3.45;;
36391;SDS011;22639;42.690;23.356;2023-08-01T10:46:10;3.60;;;3.30;;
36391;SDS011;22639;42.690;23.356;2023-08-01T10:48:35;5.13;;;3.63;;
36391;SDS011;22639;42.690;23.356;2023-08-01T10:51:12;3.63;;;3.10;;
36391;SDS011;22639;42.690;23.356;2023-08-01T10:53:38;3.97;;;3.50;;
36391;SDS011;22639;42.690;23.356;2023-08-01T10:56:04;3.80;;;3.33;;
36391;SDS011;22639;42.690;23.356;2023-08-01T10:58:29;4.28;;;3.35;;
36391;SDS011;22639;42.690;23.356;2023-08-01T11:01:00;3.80;;;3.50;;
36391;SDS011;22639;42.690;23.356;2023-08-01T11:03:35;5.53;;;4.40;;
36391;SDS011;22639;42.690;23.356;2023-08-01T11:06:01;3.85;;;3.42;;
36391;SDS011;22639;42.690;23.356;2023-08-01T11:08:35;3.95;;;3.65;;
36391;SDS011;22639;42.690;23.356;2023-08-01T11:11:00;3.78;;;3.38;;
36391;SDS011;22639;42.690;23.356;2023-08-01T11:13:25;3.88;;;3.47;;
36391;SDS011;22639;42.690;23.356;2023-08-01T11:15:53;3.63;;;3.28;;
36391;SDS011;22639;42.690;23.356;2023-08-01T11:18:21;3.50;;;3.20;;
36391;SDS011;22639;42.690;23.356;2023-08-01T11:20:49;4.28;;;3.22;;
36391;SDS011;22639;42.690;23.356;2023-08-01T11:23:14;3.90;;;3.60;;
36391;SDS011;22639;42.690;23.356;2023-08-01T11:25:40;3.20;;;3.00;;
36391;SDS011;22639;42.690;23.356;2023-08-01T11:28:09;3.50;;;3.30;;
36391;SDS011;22639;42.690;23.356;2023-08-01T11:30:34;3.70;;;3.40;;
36391;SDS011;22639;42.690;23.356;2023-08-01T11:33:01;3.75;;;3.45;;
36391;SDS011;22639;42.690;23.356;2023-08-01T11:35:28;3.72;;;3.53;;
36391;SDS011;22639;42.690;23.356;2023-08-01T11:37:53;3.65;;;3.05;;
36391;SDS011;22639;42.690;23.356;2023-08-01T11:40:19;3.33;;;3.13;;
36391;SDS011;22639;42.690;23.356;2023-08-01T11:42:48;4.82;;;4.10;;
36391;SDS011;22639;42.690;23.356;2023-08-01T11:45:18;4.47;;;3.80;;
36391;SDS011;22639;42.690;23.356;2023-08-01T11:47:46;5.88;;;3.42;;
36391;SDS011;22639;42.690;23.356;2023-08-01T11:50:12;5.75;;;3.85;;
36391;SDS011;22639;42.690;23.356;2023-08-01T11:52:38;4.00;;;3.60;;
36391;SDS011;22639;42.690;23.356;2023-08-01T11:55:03;3.88;;;3.58;;
36391;SDS011;22639;42.690;23.356;2023-08-01T11:57:28;4.07;;;3.20;;
36391;SDS011;22639;42.690;23.356;2023-08-01T11:59:55;5.07;;;3.80;;
36391;SDS011;22639;42.690;23.356;2023-08-01T12:04:46;4.40;;;3.50;;
36391;SDS011;22639;42.690;23.356;2023-08-01T12:07:12;6.35;;;3.85;;
36391;SDS011;22639;42.690;23.356;2023-08-01T12:09:38;5.85;;;4.03;;
36391;SDS011;22639;42.690;23.356;2023-08-01T12:12:03;4.10;;;3.80;;
36391;SDS011;22639;42.690;23.356;2023-08-01T12:14:29;4.35;;;3.80;;
36391;SDS011;22639;42.690;23.356;2023-08-01T12:16:54;6.22;;;3.83;;
36391;SDS011;22639;42.690;23.356;2023-08-01T12:19:20;5.00;;;4.13;;
36391;SDS011;22639;42.690;23.356;2023-08-01T12:21:46;5.05;;;3.95;;
36391;SDS011;22639;42.690;23.356;2023-08-01T12:24:12;7.45;;;4.43;;
36391;SDS011;22639;42.690;23.356;2023-08-01T12:26:37;6.03;;;3.55;;
36391;SDS011;22639;42.690;23.356;2023-08-01T12:29:03;4.57;;;4.15;;
36391;SDS011;22639;42.690;23.356;2023-08-01T12:31:28;4.88;;;3.78;;
36391;SDS011;22639;42.690;23.356;2023-08-01T12:33:53;5.20;;;3.90;;
36391;SDS011;22639;42.690;23.356;2023-08-01T12:36:18;4.05;;;3.75;;
36391;SDS011;22639;42.690;23.356;2023-08-01T12:38:44;4.68;;;3.53;;
36391;SDS011;22639;42.690;23.356;2023-08-01T12:41:09;4.03;;;3.72;;
36391;SDS011;22639;42.690;23.356;2023-08-01T12:43:34;4.05;;;3.60;;
36391;SDS011;22639;42.690;23.356;2023-08-01T12:46:00;4.18;;;3.78;;
36391;SDS011;22639;42.690;23.356;2023-08-01T12:48:25;5.53;;;3.85;;
36391;SDS011;22639;42.690;23.356;2023-08-01T12:50:51;3.50;;;3.20;;
36391;SDS011;22639;42.690;23.356;2023-08-01T12:53:16;3.90;;;3.60;;
36391;SDS011;22639;42.690;23.356;2023-08-01T12:55:42;3.35;;;3.05;;
36391;SDS011;22639;42.690;23.356;2023-08-01T12:58:08;4.10;;;3.80;;
36391;SDS011;22639;42.690;23.356;2023-08-01T13:00:33;3.78;;;3.47;;
36391;SDS011;22639;42.690;23.356;2023-08-01T13:02:58;4.78;;;3.72;;
36391;SDS011;22639;42.690;23.356;2023-08-01T13:05:23;3.67;;;3.38;;
36391;SDS011;22639;42.690;23.356;2023-08-01T13:07:49;6.10;;;4.65;;
36391;SDS011;22639;42.690;23.356;2023-08-01T13:10:15;4.00;;;3.47;;
36391;SDS011;22639;42.690;23.356;2023-08-01T13:12:40;4.53;;;3.60;;
36391;SDS011;22639;42.690;23.356;2023-08-01T13:15:05;4.95;;;3.92;;
36391;SDS011;22639;42.690;23.356;2023-08-01T13:17:31;3.90;;;3.50;;
36391;SDS011;22639;42.690;23.356;2023-08-01T13:19:56;3.45;;;3.15;;
36391;SDS011;22639;42.690;23.356;2023-08-01T13:22:21;4.85;;;4.35;;
36391;SDS011;22639;42.690;23.356;2023-08-01T13:24:46;4.20;;;3.53;;
36391;SDS011;22639;42.690;23.356;2023-08-01T13:27:12;5.70;;;4.55;;
36391;SDS011;22639;42.690;23.356;2023-08-01T13:29:38;3.97;;;3.67;;
36391;SDS011;22639;42.690;23.356;2023-08-01T13:32:05;4.85;;;3.65;;
36391;SDS011;22639;42.690;23.356;2023-08-01T13:34:30;3.67;;;3.38;;
36391;SDS011;22639;42.690;23.356;2023-08-01T13:36:56;3.67;;;3.38;;
36391;SDS011;22639;42.690;23.356;2023-08-01T13:39:21;4.82;;;3.50;;
36391;SDS011;22639;42.690;23.356;2023-08-01T13:41:47;4.65;;;3.60;;
36391;SDS011;22639;42.690;23.356;2023-08-01T13:44:12;3.45;;;3.22;;
36391;SDS011;22639;42.690;23.356;2023-08-01T13:46:37;4.22;;;3.10;;
36391;SDS011;22639;42.690;23.356;2023-08-01T13:49:02;4.30;;;3.70;;
36391;SDS011;22639;42.690;23.356;2023-08-01T13:51:28;5.13;;;3.67;;
36391;SDS011;22639;42.690;23.356;2023-08-01T13:53:56;4.00;;;3.40;;
36391;SDS011;22639;42.690;23.356;2023-08-01T13:56:24;3.97;;;3.47;;
36391;SDS011;22639;42.690;23.356;2023-08-01T13:58:50;3.28;;;2.97;;
36391;SDS011;22639;42.690;23.356;2023-08-01T14:01:16;3.67;;;3.38;;
36391;SDS011;22639;42.690;23.356;2023-08-01T14:03:41;4.68;;;3.80;;
36391;SDS011;22639;42.690;23.356;2023-08-01T14:06:09;7.32;;;3.53;;
36391;SDS011;22639;42.690;23.356;2023-08-01T14:08:36;6.25;;;3.42;;
36391;SDS011;22639;42.690;23.356;2023-08-01T14:11:02;3.45;;;3.20;;
36391;SDS011;22639;42.690;23.356;2023-08-01T14:13:28;5.78;;;3.65;;
36391;SDS011;22639;42.690;23.356;2023-08-01T14:15:53;6.50;;;3.15;;
36391;SDS011;22639;42.690;23.356;2023-08-01T14:18:18;4.65;;;3.45;;
36391;SDS011;22639;42.690;23.356;2023-08-01T14:20:44;4.60;;;3.92;;
36391;SDS011;22639;42.690;23.356;2023-08-01T14:23:09;3.78;;;3.22;;
36391;SDS011;22639;42.690;23.356;2023-08-01T14:25:34;4.07;;;3.17;;
36391;SDS011;22639;42.690;23.356;2023-08-01T14:28:00;5.20;;;3.45;;
36391;SDS011;22639;42.690;23.356;2023-08-01T14:30:25;3.70;;;3.40;;